createdAt,value
2022-10-30T00:00:16.421Z,101892.41
2022-10-30T00:03:03.757Z,101896.84
2022-10-30T00:05:31.558Z,101896.91
2022-10-30T00:07:59.155Z,101890.56
2022-10-30T00:10:26.220Z,101894.97
2022-10-30T00:12:54.213Z,101896.13
2022-10-30T00:15:21.015Z,101886.09
2022-10-30T00:17:48.333Z,101887.66
2022-10-30T00:20:15.221Z,101880.78
2022-10-30T00:22:41.978Z,101873.31
2022-10-30T00:25:09.159Z,101873.72
2022-10-30T00:27:36.100Z,101883.47
2022-10-30T00:30:03.099Z,101873.75
2022-10-30T00:32:30.396Z,101877.84
2022-10-30T00:34:57.406Z,101866.97
2022-10-30T00:37:24.401Z,101862.97
2022-10-30T00:39:51.412Z,101861.34
2022-10-30T00:42:18.807Z,101859.63
2022-10-30T00:44:48.191Z,101850.25
2022-10-30T00:47:20.149Z,101852.00
2022-10-30T00:49:51.856Z,101855.06
2022-10-30T00:52:21.009Z,101853.56
2022-10-30T00:54:48.182Z,101853.66
2022-10-30T00:57:15.093Z,101864.66
2022-10-30T00:59:42.727Z,101861.88
2022-10-30T01:02:09.710Z,101855.34
2022-10-30T01:04:38.037Z,101852.47
2022-10-30T01:07:10.991Z,101848.44
2022-10-30T01:09:39.033Z,101837.50
2022-10-30T01:12:06.828Z,101833.47
2022-10-30T01:14:36.873Z,101831.53
2022-10-30T01:17:03.688Z,101829.84
2022-10-30T01:19:39.975Z,101830.34
2022-10-30T01:22:25.577Z,101830.34
2022-10-30T01:25:04.576Z,101831.97
2022-10-30T01:27:43.337Z,101828.06
2022-10-30T01:30:35.842Z,101833.13
2022-10-30T01:33:02.600Z,101832.22
2022-10-30T01:35:32.482Z,101817.53
2022-10-30T01:38:05.331Z,101821.09
2022-10-30T01:40:33.198Z,101820.22
2022-10-30T01:43:00.777Z,101818.03
2022-10-30T01:45:27.664Z,101811.22
2022-10-30T01:48:03.748Z,101805.72
2022-10-30T01:50:38.840Z,101809.31
2022-10-30T01:53:26.957Z,101796.31
2022-10-30T01:56:02.308Z,101791.72
2022-10-30T01:58:41.193Z,101783.97
2022-10-30T02:01:08.285Z,101783.00
2022-10-30T02:03:35.387Z,101785.13
2022-10-30T02:06:02.256Z,101785.34
2022-10-30T02:08:29.227Z,101785.06
2022-10-30T02:10:56.582Z,101779.75
2022-10-30T02:13:23.688Z,101787.59
2022-10-30T02:15:51.076Z,101781.44
2022-10-30T02:18:18.131Z,101784.88
2022-10-30T02:20:45.102Z,101784.81
2022-10-30T02:23:19.103Z,101776.41
2022-10-30T02:25:46.320Z,101774.06
2022-10-30T02:28:13.216Z,101776.06
2022-10-30T02:30:41.190Z,101776.25
2022-10-30T02:33:08.291Z,101771.16
2022-10-30T02:35:35.469Z,101773.09
2022-10-30T02:38:02.674Z,101764.53
2022-10-30T02:40:29.967Z,101766.25
2022-10-30T02:42:56.869Z,101760.84
2022-10-30T02:45:23.852Z,101759.34
2022-10-30T02:47:51.086Z,101761.22
2022-10-30T02:50:18.131Z,101753.63
2022-10-30T02:52:45.218Z,101745.78
2022-10-30T02:55:12.260Z,101752.81
2022-10-30T02:57:39.055Z,101752.59
2022-10-30T03:00:06.446Z,101756.16
2022-10-30T03:02:33.795Z,101757.31
2022-10-30T03:05:00.657Z,101761.88
2022-10-30T03:07:27.615Z,101768.94
2022-10-30T03:09:55.074Z,101769.44
2022-10-30T03:12:22.262Z,101771.59
2022-10-30T03:14:49.252Z,101771.78
2022-10-30T03:17:16.277Z,101774.03
2022-10-30T03:19:43.143Z,101775.13
2022-10-30T03:22:09.942Z,101769.16
2022-10-30T03:24:38.375Z,101769.56
2022-10-30T03:27:05.231Z,101771.88
2022-10-30T03:29:32.091Z,101781.94
2022-10-30T03:31:59.195Z,101784.78
2022-10-30T03:34:27.626Z,101783.19
2022-10-30T03:36:54.618Z,101780.13
2022-10-30T03:39:21.743Z,101790.91
2022-10-30T03:41:48.931Z,101785.44
2022-10-30T03:44:15.874Z,101795.19
2022-10-30T03:46:43.172Z,101792.94
2022-10-30T03:49:09.967Z,101790.13
2022-10-30T03:51:36.874Z,101786.41
2022-10-30T03:54:03.978Z,101788.59
2022-10-30T03:56:30.910Z,101774.63
2022-10-30T03:58:57.803Z,101773.66
2022-10-30T04:01:25.219Z,101776.75
2022-10-30T04:03:52.236Z,101775.56
2022-10-30T04:06:19.113Z,101776.88
2022-10-30T04:08:46.317Z,101780.63
2022-10-30T04:11:13.231Z,101790.59
2022-10-30T04:13:40.337Z,101786.44
2022-10-30T04:16:07.906Z,101786.25
2022-10-30T04:18:34.872Z,101780.53
2022-10-30T04:21:02.044Z,101783.66
2022-10-30T04:23:29.043Z,101779.81
2022-10-30T04:25:56.017Z,101777.19
2022-10-30T04:28:23.362Z,101789.06
2022-10-30T04:30:50.297Z,101782.91
2022-10-30T04:33:17.298Z,101782.09
2022-10-30T04:35:44.600Z,101783.88
2022-10-30T04:38:13.108Z,101777.41
2022-10-30T04:40:41.627Z,101785.72
2022-10-30T04:43:09.234Z,101787.50
2022-10-30T04:45:36.684Z,101795.47
2022-10-30T04:48:05.112Z,101793.41
2022-10-30T04:50:33.058Z,101793.31
2022-10-30T04:53:00.913Z,101790.31
2022-10-30T04:55:28.286Z,101781.16
2022-10-30T04:57:56.371Z,101788.63
2022-10-30T05:00:23.390Z,101778.78
2022-10-30T05:02:50.415Z,101778.63
2022-10-30T05:05:17.615Z,101775.47
2022-10-30T05:07:44.402Z,101768.59
2022-10-30T05:10:12.250Z,101773.94
2022-10-30T05:12:39.358Z,101781.09
2022-10-30T05:15:06.492Z,101792.53
2022-10-30T05:17:33.513Z,101784.84
2022-10-30T05:20:00.412Z,101779.03
2022-10-30T05:22:27.444Z,101774.03
2022-10-30T05:24:54.333Z,101779.22
2022-10-30T05:27:21.387Z,101781.41
2022-10-30T05:29:48.390Z,101765.63
2022-10-30T05:32:15.223Z,101764.53
2022-10-30T05:34:43.079Z,101771.44
2022-10-30T05:37:09.935Z,101772.59
2022-10-30T05:39:36.844Z,101773.16
2022-10-30T05:42:06.574Z,101773.28
2022-10-30T05:44:59.134Z,101783.22
2022-10-30T05:47:22.544Z,101779.31
2022-10-30T05:49:49.322Z,101786.91
2022-10-30T05:52:16.365Z,101792.09
2022-10-30T05:54:43.231Z,101789.97
2022-10-30T05:57:10.181Z,101787.13
2022-10-30T05:59:37.440Z,101779.38
2022-10-30T06:02:04.452Z,101785.84
2022-10-30T06:04:35.750Z,101794.44
2022-10-30T06:07:02.727Z,101789.06
2022-10-30T06:09:29.695Z,101781.81
2022-10-30T06:11:58.699Z,101776.34
2022-10-30T06:14:25.651Z,101797.09
2022-10-30T06:16:52.783Z,101803.06
2022-10-30T06:19:19.670Z,101790.56
2022-10-30T06:21:46.915Z,101789.25
2022-10-30T06:24:14.305Z,101788.44
2022-10-30T06:26:41.517Z,101793.06
2022-10-30T06:29:10.395Z,101800.16
2022-10-30T06:31:37.616Z,101796.31
2022-10-30T06:34:06.563Z,101798.22
2022-10-30T06:36:33.969Z,101798.78
2022-10-30T06:39:01.198Z,101785.25
2022-10-30T06:41:30.467Z,101786.38
2022-10-30T06:43:57.927Z,101781.03
2022-10-30T06:46:28.830Z,101782.75
2022-10-30T06:48:59.519Z,101784.59
2022-10-30T06:51:27.184Z,101776.25
2022-10-30T06:53:54.095Z,101767.66
2022-10-30T06:56:21.016Z,101773.16
2022-10-30T06:58:48.191Z,101782.31
2022-10-30T07:01:15.108Z,101786.00
2022-10-30T07:03:42.215Z,101776.44
2022-10-30T07:06:09.376Z,101788.47
2022-10-30T07:08:36.203Z,101800.56
2022-10-30T07:11:03.163Z,101795.75
2022-10-30T07:13:31.495Z,101790.50
2022-10-30T07:15:58.885Z,101800.47
2022-10-30T07:18:25.975Z,101803.34
2022-10-30T07:20:56.681Z,101801.56
2022-10-30T07:23:23.663Z,101814.41
2022-10-30T07:25:51.696Z,101793.78
2022-10-30T07:28:18.512Z,101782.94
2022-10-30T07:30:45.491Z,101761.25
2022-10-30T07:33:16.799Z,101758.38
2022-10-30T07:35:43.632Z,101774.44
2022-10-30T07:38:12.953Z,101771.72
2022-10-30T07:40:42.731Z,101774.56
2022-10-30T07:43:13.555Z,101768.56
2022-10-30T07:45:40.354Z,101756.75
2022-10-30T07:48:07.388Z,101749.41
2022-10-30T07:50:34.284Z,101757.91
2022-10-30T07:53:01.154Z,101750.78
2022-10-30T07:55:28.260Z,101753.13
2022-10-30T07:57:55.277Z,101761.28
2022-10-30T08:00:22.714Z,101763.72
2022-10-30T08:02:56.119Z,101755.72
2022-10-30T08:05:27.135Z,101761.84
2022-10-30T08:07:57.299Z,101768.63
2022-10-30T08:10:24.527Z,101764.41
2022-10-30T08:12:53.783Z,101757.66
2022-10-30T08:15:20.680Z,101763.22
2022-10-30T08:17:48.767Z,101768.78
2022-10-30T08:20:17.082Z,101765.09
2022-10-30T08:22:48.427Z,101772.41
2022-10-30T08:25:17.291Z,101774.28
2022-10-30T08:27:52.001Z,101774.44
2022-10-30T08:30:19.442Z,101776.88
2022-10-30T08:32:46.925Z,101783.56
2022-10-30T08:35:18.704Z,101783.38
2022-10-30T08:37:47.029Z,101784.91
2022-10-30T08:40:14.373Z,101791.78
2022-10-30T08:42:41.298Z,101794.63
2022-10-30T08:45:08.766Z,101798.13
2022-10-30T08:47:35.694Z,101789.78
2022-10-30T08:50:03.188Z,101791.41
2022-10-30T08:52:30.835Z,101796.56
2022-10-30T08:54:57.937Z,101784.75
2022-10-30T08:57:24.743Z,101790.34
2022-10-30T08:59:51.836Z,101782.03
2022-10-30T09:02:18.891Z,101787.50
2022-10-30T09:04:45.935Z,101781.94
2022-10-30T09:07:13.293Z,101769.63
2022-10-30T09:09:40.204Z,101775.06
2022-10-30T09:12:07.333Z,101774.88
2022-10-30T09:14:37.781Z,101765.06
2022-10-30T09:17:04.712Z,101761.81
2022-10-30T09:19:31.691Z,101768.09
2022-10-30T09:21:59.012Z,101777.94
2022-10-30T09:24:26.004Z,101774.34
2022-10-30T09:26:55.326Z,101776.03
2022-10-30T09:29:22.296Z,101778.34
2022-10-30T09:31:49.189Z,101782.34
2022-10-30T09:34:16.342Z,101773.13
2022-10-30T09:36:47.749Z,101783.13
2022-10-30T09:39:14.958Z,101785.97
2022-10-30T09:42:00.696Z,101782.09
2022-10-30T09:45:15.182Z,101784.22
2022-10-30T09:48:01.967Z,101776.47
2022-10-30T09:50:35.728Z,101762.22
2022-10-30T09:53:05.976Z,101746.63
2022-10-30T09:55:51.395Z,101751.44
2022-10-30T09:58:30.681Z,101760.25
2022-10-30T10:01:07.514Z,101770.06
2022-10-30T10:03:53.598Z,101774.31
2022-10-30T10:06:21.220Z,101761.97
2022-10-30T10:08:50.980Z,101757.44
2022-10-30T10:11:22.441Z,101753.38
2022-10-30T10:13:55.992Z,101761.19
2022-10-30T10:16:36.823Z,101749.81
2022-10-30T10:19:26.344Z,101758.00
2022-10-30T10:21:53.207Z,101745.28
2022-10-30T10:24:22.587Z,101740.50
2022-10-30T10:26:52.328Z,101739.06
2022-10-30T10:29:39.772Z,101751.47
2022-10-30T10:32:08.401Z,101746.22
2022-10-30T10:34:54.065Z,101740.44
2022-10-30T10:37:30.288Z,101734.56
2022-10-30T10:40:06.657Z,101726.00
2022-10-30T10:42:52.632Z,101738.84
2022-10-30T10:45:24.395Z,101736.94
2022-10-30T10:48:10.522Z,101727.31
2022-10-30T10:50:42.752Z,101719.19
2022-10-30T10:53:28.632Z,101715.59
2022-10-30T10:55:58.754Z,101711.09
2022-10-30T10:58:34.777Z,101715.75
2022-10-30T11:01:02.427Z,101708.56
2022-10-30T11:03:34.852Z,101698.41
2022-10-30T11:06:20.447Z,101707.81
2022-10-30T11:08:48.118Z,101717.72
2022-10-30T11:11:15.619Z,101706.50
2022-10-30T11:13:45.574Z,101706.72
2022-10-30T11:16:31.806Z,101710.63
2022-10-30T11:19:01.120Z,101712.47
2022-10-30T11:21:29.456Z,101712.59
2022-10-30T11:23:56.712Z,101715.56
2022-10-30T11:26:26.752Z,101710.13
2022-10-30T11:29:03.931Z,101703.75
2022-10-30T11:31:37.988Z,101709.13
2022-10-30T11:34:13.927Z,101694.94
2022-10-30T11:36:41.339Z,101695.56
2022-10-30T11:39:18.522Z,101687.34
2022-10-30T11:42:21.003Z,101688.38
2022-10-30T11:44:51.524Z,101694.97
2022-10-30T11:47:21.853Z,101691.66
2022-10-30T11:49:51.859Z,101700.34
2022-10-30T11:52:20.644Z,101707.81
2022-10-30T11:54:51.264Z,101699.16
2022-10-30T11:57:36.089Z,101691.44
2022-10-30T12:00:05.896Z,101693.69
2022-10-30T12:02:41.025Z,101688.75
2022-10-30T12:05:34.692Z,101685.00
2022-10-30T12:08:08.226Z,101688.16
2022-10-30T12:10:38.744Z,101687.44
2022-10-30T12:13:06.591Z,101683.03
2022-10-30T12:15:37.381Z,101681.94
2022-10-30T12:18:06.336Z,101681.06
2022-10-30T12:20:36.371Z,101677.31
2022-10-30T12:23:17.091Z,101671.41
2022-10-30T12:25:47.859Z,101666.09
2022-10-30T12:28:17.388Z,101663.31
2022-10-30T12:31:04.730Z,101665.63
2022-10-30T12:33:37.720Z,101675.91
2022-10-30T12:36:14.391Z,101677.13
2022-10-30T12:38:41.165Z,101677.44
2022-10-30T12:41:20.428Z,101683.03
2022-10-30T12:43:52.696Z,101679.75
2022-10-30T12:46:22.762Z,101674.91
2022-10-30T12:49:12.666Z,101668.63
2022-10-30T12:51:43.303Z,101672.28
2022-10-30T12:54:12.939Z,101668.66
2022-10-30T12:56:43.246Z,101677.00
2022-10-30T12:59:10.080Z,101679.78
2022-10-30T13:01:56.521Z,101682.94
2022-10-30T13:04:25.921Z,101675.47
2022-10-30T13:07:13.564Z,101674.28
2022-10-30T13:09:44.036Z,101670.78
2022-10-30T13:12:24.004Z,101677.75
2022-10-30T13:15:14.192Z,101679.81
2022-10-30T13:17:41.315Z,101675.00
2022-10-30T13:20:12.716Z,101677.66
2022-10-30T13:23:03.159Z,101672.88
2022-10-30T13:25:59.544Z,101662.47
2022-10-30T13:28:28.738Z,101665.22
2022-10-30T13:31:28.227Z,101665.56
2022-10-30T13:34:01.205Z,101664.97
2022-10-30T13:36:50.802Z,101666.72
2022-10-30T13:39:20.969Z,101671.03
2022-10-30T13:41:59.842Z,101678.75
2022-10-30T13:44:30.119Z,101675.72
2022-10-30T13:47:15.324Z,101677.88
2022-10-30T13:50:01.109Z,101683.09
2022-10-30T13:52:30.297Z,101684.06
2022-10-30T13:55:01.643Z,101692.28
2022-10-30T13:57:37.512Z,101690.56
2022-10-30T14:00:16.989Z,101693.34
2022-10-30T14:02:50.228Z,101700.06
2022-10-30T14:05:31.515Z,101698.25
2022-10-30T14:08:05.297Z,101698.38
2022-10-30T14:10:53.366Z,101698.25
2022-10-30T14:13:29.038Z,101697.97
2022-10-30T14:16:06.588Z,101711.38
2022-10-30T14:18:44.227Z,101695.53
2022-10-30T14:21:32.217Z,101708.22
2022-10-30T14:24:19.342Z,101704.59
2022-10-30T14:26:50.097Z,101708.13
2022-10-30T14:29:34.856Z,101707.84
2022-10-30T14:32:03.532Z,101711.22
2022-10-30T14:34:49.177Z,101703.59
2022-10-30T14:37:19.120Z,101698.75
2022-10-30T14:39:46.583Z,101699.19
2022-10-30T14:42:14.047Z,101698.69
2022-10-30T14:44:47.049Z,101696.75
2022-10-30T14:47:36.955Z,101705.78
2022-10-30T14:50:24.122Z,101703.13
2022-10-30T14:52:53.115Z,101710.59
2022-10-30T14:55:29.299Z,101711.84
2022-10-30T14:58:02.368Z,101710.28
2022-10-30T15:00:35.449Z,101718.38
2022-10-30T15:03:19.024Z,101709.41
2022-10-30T15:05:58.827Z,101706.75
2022-10-30T15:08:29.205Z,101712.81
2022-10-30T15:11:02.299Z,101705.28
2022-10-30T15:13:29.652Z,101712.09
2022-10-30T15:16:04.844Z,101715.19
2022-10-30T15:18:32.236Z,101708.50
2022-10-30T15:21:03.427Z,101719.44
2022-10-30T15:23:33.107Z,101709.56
2022-10-30T15:26:08.105Z,101714.25
2022-10-30T15:28:37.202Z,101708.63
2022-10-30T15:31:05.507Z,101716.13
2022-10-30T15:33:35.454Z,101716.69
2022-10-30T15:36:02.923Z,101715.28
2022-10-30T15:38:29.855Z,101716.22
2022-10-30T15:40:58.724Z,101718.94
2022-10-30T15:43:37.887Z,101714.34
2022-10-30T15:46:09.332Z,101712.69
2022-10-30T15:48:38.337Z,101709.63
2022-10-30T15:51:07.260Z,101716.53
2022-10-30T15:53:34.102Z,101718.88
2022-10-30T15:56:01.136Z,101712.56
2022-10-30T15:58:28.252Z,101712.03
2022-10-30T16:00:59.243Z,101709.94
2022-10-30T16:03:27.103Z,101711.41
2022-10-30T16:06:16.168Z,101709.59
2022-10-30T16:08:47.460Z,101711.09
2022-10-30T16:11:15.598Z,101707.97
2022-10-30T16:13:43.065Z,101701.06
2022-10-30T16:16:30.373Z,101710.19
2022-10-30T16:19:02.787Z,101704.25
2022-10-30T16:21:31.218Z,101705.97
2022-10-30T16:24:01.426Z,101709.41
2022-10-30T16:26:36.238Z,101705.50
2022-10-30T16:29:11.428Z,101706.31
2022-10-30T16:31:38.674Z,101708.38
2022-10-30T16:34:09.340Z,101711.81
2022-10-30T16:36:36.927Z,101713.59
2022-10-30T16:39:04.239Z,101705.44
2022-10-30T16:41:31.776Z,101716.56
2022-10-30T16:44:25.174Z,101713.81
2022-10-30T16:47:01.007Z,101718.81
2022-10-30T16:49:29.808Z,101715.97
2022-10-30T16:51:59.327Z,101715.50
2022-10-30T16:54:28.548Z,101714.53
2022-10-30T16:56:58.355Z,101717.25
2022-10-30T16:59:37.520Z,101717.53
2022-10-30T17:02:14.187Z,101720.34
2022-10-30T17:04:42.899Z,101721.34
2022-10-30T17:07:17.513Z,101718.59
2022-10-30T17:09:45.342Z,101728.41
2022-10-30T17:12:14.823Z,101716.41
2022-10-30T17:14:49.399Z,101723.41
2022-10-30T17:17:21.747Z,101731.28
2022-10-30T17:19:49.815Z,101724.38
2022-10-30T17:22:19.654Z,101728.75
2022-10-30T17:24:47.839Z,101723.47
2022-10-30T17:27:31.142Z,101732.06
2022-10-30T17:29:58.085Z,101733.34
2022-10-30T17:32:26.690Z,101738.56
2022-10-30T17:35:12.459Z,101741.03
2022-10-30T17:37:39.607Z,101737.81
2022-10-30T17:40:06.713Z,101742.09
2022-10-30T17:42:34.135Z,101742.44
2022-10-30T17:45:01.092Z,101745.31
2022-10-30T17:47:28.716Z,101743.19
2022-10-30T17:49:55.620Z,101744.16
2022-10-30T17:52:22.800Z,101746.44
2022-10-30T17:54:49.787Z,101748.16
2022-10-30T17:57:16.994Z,101753.78
2022-10-30T17:59:43.878Z,101760.28
2022-10-30T18:02:18.433Z,101758.16
2022-10-30T18:04:45.804Z,101761.53
2022-10-30T18:07:13.708Z,101763.25
2022-10-30T18:09:41.116Z,101756.34
2022-10-30T18:12:11.655Z,101764.09
2022-10-30T18:14:38.806Z,101765.63
2022-10-30T18:17:05.862Z,101767.22
2022-10-30T18:19:33.336Z,101771.16
2022-10-30T18:22:00.197Z,101770.38
2022-10-30T18:24:27.311Z,101766.06
2022-10-30T18:26:54.960Z,101765.06
2022-10-30T18:29:21.816Z,101770.88
2022-10-30T18:31:49.277Z,101768.78
2022-10-30T18:34:17.358Z,101762.09
2022-10-30T18:36:44.363Z,101767.09
2022-10-30T18:39:13.229Z,101767.19
2022-10-30T18:41:42.345Z,101765.56
2022-10-30T18:44:18.748Z,101770.13
2022-10-30T18:46:45.837Z,101767.75
2022-10-30T18:49:13.380Z,101770.50
2022-10-30T18:51:40.325Z,101763.59
2022-10-30T18:54:14.182Z,101762.16
2022-10-30T18:56:43.509Z,101762.56
2022-10-30T18:59:11.019Z,101760.44
2022-10-30T19:01:38.366Z,101759.19
2022-10-30T19:04:09.695Z,101762.78
2022-10-30T19:06:38.879Z,101765.25
2022-10-30T19:09:06.412Z,101767.19
2022-10-30T19:11:33.397Z,101766.09
2022-10-30T19:14:00.686Z,101769.75
2022-10-30T19:16:28.067Z,101761.22
2022-10-30T19:18:55.173Z,101770.97
2022-10-30T19:21:24.914Z,101770.44
2022-10-30T19:23:52.161Z,101760.78
2022-10-30T19:26:19.344Z,101762.16
2022-10-30T19:28:46.747Z,101757.75
2022-10-30T19:31:14.794Z,101769.84
2022-10-30T19:33:42.345Z,101765.72
2022-10-30T19:36:24.587Z,101758.66
2022-10-30T19:38:51.534Z,101766.38
2022-10-30T19:41:18.831Z,101767.09
2022-10-30T19:43:46.375Z,101765.03
2022-10-30T19:46:14.923Z,101770.63
2022-10-30T19:48:58.955Z,101762.81
2022-10-30T19:51:30.232Z,101763.09
2022-10-30T19:53:57.112Z,101760.63
2022-10-30T19:56:24.265Z,101760.63
2022-10-30T19:58:52.100Z,101755.78
2022-10-30T20:01:19.606Z,101754.00
2022-10-30T20:03:46.613Z,101746.19
2022-10-30T20:06:14.402Z,101749.53
2022-10-30T20:08:41.881Z,101750.69
2022-10-30T20:11:09.506Z,101757.97
2022-10-30T20:13:37.361Z,101753.41
2022-10-30T20:16:05.831Z,101762.47
2022-10-30T20:18:34.568Z,101761.13
2022-10-30T20:21:03.068Z,101762.88
2022-10-30T20:23:30.445Z,101760.53
2022-10-30T20:26:01.724Z,101755.81
2022-10-30T20:28:39.559Z,101755.72
2022-10-30T20:31:07.644Z,101756.38
2022-10-30T20:33:34.771Z,101759.09
2022-10-30T20:36:02.204Z,101761.56
2022-10-30T20:38:33.366Z,101765.97
2022-10-30T20:41:01.020Z,101765.81
2022-10-30T20:43:32.921Z,101760.00
2022-10-30T20:46:00.849Z,101763.13
2022-10-30T20:48:28.232Z,101763.47
2022-10-30T20:50:59.611Z,101758.72
2022-10-30T20:53:26.880Z,101755.59
2022-10-30T20:55:53.898Z,101754.59
2022-10-30T20:58:21.038Z,101756.25
2022-10-30T21:00:47.979Z,101768.69
2022-10-30T21:03:15.111Z,101769.03
2022-10-30T21:05:44.607Z,101768.53
2022-10-30T21:08:13.014Z,101764.47
2022-10-30T21:10:40.543Z,101769.94
2022-10-30T21:13:09.685Z,101769.28
2022-10-30T21:15:41.412Z,101772.75
2022-10-30T21:18:09.109Z,101773.16
2022-10-30T21:20:37.077Z,101770.31
2022-10-30T21:23:04.372Z,101764.50
2022-10-30T21:25:32.671Z,101767.78
2022-10-30T21:28:01.792Z,101770.25
2022-10-30T21:30:28.597Z,101772.47
2022-10-30T21:32:55.784Z,101769.44
2022-10-30T21:35:22.660Z,101771.50
2022-10-30T21:37:49.694Z,101772.97
2022-10-30T21:40:16.925Z,101767.06
2022-10-30T21:42:43.800Z,101772.88
2022-10-30T21:45:10.841Z,101771.69
2022-10-30T21:47:38.003Z,101778.06
2022-10-30T21:50:07.785Z,101772.34
2022-10-30T21:52:36.460Z,101782.44
2022-10-30T21:55:03.480Z,101782.28
2022-10-30T21:57:30.367Z,101777.25
2022-10-30T22:00:00.024Z,101777.94
2022-10-30T22:02:30.510Z,101778.47
2022-10-30T22:04:57.641Z,101771.91
2022-10-30T22:07:24.527Z,101769.75
2022-10-30T22:09:51.487Z,101769.44
2022-10-30T22:12:18.574Z,101766.34
2022-10-30T22:14:45.436Z,101765.38
2022-10-30T22:17:13.039Z,101760.78
2022-10-30T22:19:40.301Z,101766.97
2022-10-30T22:22:07.270Z,101763.41
2022-10-30T22:24:34.085Z,101769.63
2022-10-30T22:27:01.170Z,101766.50
2022-10-30T22:29:28.070Z,101760.97
2022-10-30T22:31:54.941Z,101768.28
2022-10-30T22:34:21.970Z,101770.97
2022-10-30T22:36:48.831Z,101770.00
2022-10-30T22:39:15.676Z,101770.69
2022-10-30T22:41:42.823Z,101768.44
2022-10-30T22:44:13.781Z,101772.47
2022-10-30T22:46:40.803Z,101775.38
2022-10-30T22:49:08.048Z,101771.59
2022-10-30T22:51:35.792Z,101777.94
2022-10-30T22:54:03.886Z,101773.03
2022-10-30T22:56:32.027Z,101777.69
2022-10-30T22:59:01.003Z,101773.16
2022-10-30T23:01:29.248Z,101785.50
2022-10-30T23:03:57.274Z,101782.13
2022-10-30T23:06:24.944Z,101775.53
2022-10-30T23:08:53.255Z,101784.13
2022-10-30T23:11:20.622Z,101780.63
2022-10-30T23:13:48.101Z,101787.94
2022-10-30T23:16:16.651Z,101785.56
2022-10-30T23:18:44.467Z,101783.78
2022-10-30T23:21:14.365Z,101781.28
2022-10-30T23:23:42.803Z,101788.63
2022-10-30T23:26:11.295Z,101789.53
2022-10-30T23:28:38.399Z,101790.63
2022-10-30T23:31:16.599Z,101790.63
2022-10-30T23:33:46.099Z,101803.88
2022-10-30T23:36:13.175Z,101803.22
2022-10-30T23:38:40.351Z,101796.59
2022-10-30T23:41:07.143Z,101799.06
2022-10-30T23:43:34.164Z,101800.28
2022-10-30T23:46:01.053Z,101795.88
2022-10-30T23:48:28.152Z,101807.56
2022-10-30T23:50:55.059Z,101807.69
2022-10-30T23:53:22.348Z,101811.34
2022-10-30T23:55:52.945Z,101798.84
2022-10-30T23:58:20.667Z,101811.84
